Comandante Luis Piedra Buena, Argentina
Current Conditions -  °F | °C
As of 5:00 AM on Monday 20 Oct 2014 (Local Time) from SAWG Reporting Station
Clear Clear  
Wind Chill:   Ceiling: Unl
Heat Index:   Visibility: 6mi
Dew Point:   Wind: 3mph
Humidity: 76%   Direction: 320°NW
Pressure: 29.47"   Gusts: NA
Location:  49.98°S, 68.9°W
Report Text: SAWG 200800Z 32003KT CAVOK 07/03 Q0998
Loading
Personal Weather Stations






























Interactive Weather Map
Tropical Storm Tracking
New forecast layout! Learn more

10-Day Weather Forecast

Advertisements
Track Severe Weather on mobile